Terminal Aerodrome Forecast
Issued by NWS Upton, NY

Home | Current Version | Previous Version | Text Only | Print | Product List | Glossary On
Versions: 1 2 3 4 5 6 7 8 9 10 11 12 13 14 15 16 17 18 19 20 21 22 23 24 25 26 27 28 29 30 31 32
000
FTUS41 KOKX 290544
TAFLGA
TAF
KLGA 290544Z 2906/3006 09010KT P6SM -RA BKN045
     FM290900 07014G20KT 6SM -RA OVC035
     FM291100 06015G20KT 5SM -RA OVC025
     FM291500 06012KT 5SM -RA BR OVC015
     FM291800 05008KT 5SM -RA BR OVC015
     FM300000 09009KT 5SM BR OVC015
     FM300400 10006KT 5SM BR OVC009=

USA.gov is the U.S. government's official web portal to all federal, state and local government web resources and services.